createdAt,value
2018-06-10T00:00:57.830Z,18.61
2018-06-10T00:01:57.999Z,18.56
2018-06-10T00:02:58.171Z,18.54
2018-06-10T00:03:58.347Z,18.66
2018-06-10T00:04:58.527Z,18.49
2018-06-10T00:05:58.711Z,18.60
2018-06-10T00:06:58.880Z,18.52
2018-06-10T00:07:59.092Z,18.56
2018-06-10T00:08:59.281Z,18.52
2018-06-10T00:09:59.481Z,18.54
2018-06-10T00:10:59.647Z,18.42
2018-06-10T00:11:59.834Z,18.24
2018-06-10T00:13:00.052Z,18.21
2018-06-10T00:14:00.191Z,18.17
2018-06-10T00:15:00.394Z,18.17
2018-06-10T00:16:00.537Z,18.12
2018-06-10T00:17:00.745Z,18.06
2018-06-10T00:18:00.912Z,18.13
2018-06-10T00:19:01.132Z,18.17
2018-06-10T00:20:01.304Z,18.21
2018-06-10T00:21:01.464Z,18.20
2018-06-10T00:22:01.655Z,18.18
2018-06-10T00:23:01.835Z,18.26
2018-06-10T00:24:02.042Z,18.28
2018-06-10T00:25:02.216Z,18.26
2018-06-10T00:26:02.434Z,18.28
2018-06-10T00:27:02.574Z,18.34
2018-06-10T00:28:02.795Z,18.24
2018-06-10T00:29:02.939Z,18.27
2018-06-10T00:30:03.154Z,18.24
2018-06-10T00:31:03.347Z,18.31
2018-06-10T00:32:03.519Z,18.33
2018-06-10T00:33:03.688Z,18.30
2018-06-10T00:34:03.882Z,18.33
2018-06-10T00:35:04.080Z,18.23
2018-06-10T00:36:04.310Z,18.28
2018-06-10T00:37:04.427Z,18.28
2018-06-10T00:38:04.610Z,18.31
2018-06-10T00:39:04.770Z,18.17
2018-06-10T00:40:04.951Z,18.23
2018-06-10T00:41:05.133Z,18.21
2018-06-10T00:42:05.319Z,18.21
2018-06-10T00:43:05.504Z,18.30
2018-06-10T00:44:05.718Z,18.34
2018-06-10T00:45:05.904Z,18.24
2018-06-10T00:46:06.089Z,18.24
2018-06-10T00:47:06.281Z,18.34
2018-06-10T00:48:06.514Z,18.28
2018-06-10T00:49:06.696Z,18.28
2018-06-10T00:50:06.809Z,18.27
2018-06-10T00:51:07.007Z,18.24
2018-06-10T00:52:07.171Z,18.26
2018-06-10T00:53:07.353Z,18.21
2018-06-10T00:54:07.572Z,18.17
2018-06-10T00:55:07.717Z,18.24
2018-06-10T00:56:07.900Z,18.23
2018-06-10T00:57:08.075Z,18.17
2018-06-10T00:58:08.259Z,18.23
2018-06-10T00:59:08.437Z,18.20
2018-06-10T01:00:08.680Z,18.17
2018-06-10T01:01:08.822Z,18.12
2018-06-10T01:02:09.003Z,18.08
2018-06-10T01:03:09.166Z,18.03
2018-06-10T01:04:09.311Z,18.03
2018-06-10T01:05:09.519Z,18.12
2018-06-10T01:06:09.702Z,18.13
2018-06-10T01:07:09.919Z,18.18
2018-06-10T01:08:10.093Z,18.06
2018-06-10T01:09:10.244Z,18.09
2018-06-10T01:10:10.429Z,18.06
2018-06-10T01:11:10.593Z,18.11
2018-06-10T01:12:10.814Z,18.03
2018-06-10T01:13:10.992Z,18.13
2018-06-10T01:14:11.174Z,18.15
2018-06-10T01:15:11.314Z,18.11
2018-06-10T01:16:11.569Z,18.13
2018-06-10T01:17:11.687Z,18.18
2018-06-10T01:18:11.851Z,18.21
2018-06-10T01:19:12.033Z,18.23
2018-06-10T01:20:12.225Z,18.18
2018-06-10T01:21:12.441Z,18.31
2018-06-10T01:22:12.616Z,18.27
2018-06-10T01:23:12.791Z,18.31
2018-06-10T01:24:12.948Z,18.27
2018-06-10T01:25:13.143Z,18.30
2018-06-10T01:26:13.382Z,18.20
2018-06-10T01:27:13.484Z,18.27
2018-06-10T01:28:13.689Z,18.28
2018-06-10T01:29:13.842Z,18.23
2018-06-10T01:30:14.013Z,18.28
2018-06-10T01:31:14.209Z,18.20
2018-06-10T01:32:14.438Z,18.17
2018-06-10T01:33:14.576Z,18.26
2018-06-10T01:34:14.761Z,18.17
2018-06-10T01:35:14.944Z,18.20
2018-06-10T01:36:15.116Z,18.26
2018-06-10T01:37:15.288Z,18.26
2018-06-10T01:38:15.480Z,18.33
2018-06-10T01:39:15.705Z,18.27
2018-06-10T01:40:15.853Z,18.27
2018-06-10T01:41:16.031Z,18.27
2018-06-10T01:42:16.223Z,18.21
2018-06-10T01:43:16.436Z,18.27
2018-06-10T01:44:16.569Z,18.18
2018-06-10T01:45:16.741Z,18.21
2018-06-10T01:46:16.938Z,18.30
2018-06-10T01:47:17.085Z,18.36
2018-06-10T01:48:17.266Z,18.28
2018-06-10T01:49:17.475Z,18.39
2018-06-10T01:50:17.625Z,18.33
2018-06-10T01:51:17.833Z,18.36
2018-06-10T01:52:17.996Z,18.39
2018-06-10T01:53:18.191Z,18.34
2018-06-10T01:54:18.416Z,18.39
2018-06-10T01:55:18.554Z,18.39
2018-06-10T01:56:18.753Z,18.33
2018-06-10T01:57:18.950Z,18.41
2018-06-10T01:58:19.135Z,18.42
2018-06-10T01:59:19.340Z,18.39
2018-06-10T02:00:19.480Z,18.41
2018-06-10T02:01:19.691Z,18.38
2018-06-10T02:02:19.877Z,18.39
2018-06-10T02:03:20.033Z,18.36
2018-06-10T02:04:20.206Z,18.33
2018-06-10T02:05:20.378Z,18.24
2018-06-10T02:06:20.539Z,18.33
2018-06-10T02:07:20.781Z,18.28
2018-06-10T02:08:20.919Z,18.26
2018-06-10T02:09:21.113Z,18.33
2018-06-10T02:10:21.275Z,18.26
2018-06-10T02:11:21.474Z,18.31
2018-06-10T02:12:21.635Z,18.31
2018-06-10T02:13:21.852Z,18.26
2018-06-10T02:14:22.024Z,18.26
2018-06-10T02:15:22.234Z,18.34
2018-06-10T02:16:22.381Z,18.21
2018-06-10T02:17:22.580Z,18.23
2018-06-10T02:18:22.753Z,18.24
2018-06-10T02:19:22.973Z,18.28
2018-06-10T02:20:23.120Z,18.26
2018-06-10T02:21:23.348Z,18.21
2018-06-10T02:22:23.497Z,18.26
2018-06-10T02:23:23.707Z,18.27
2018-06-10T02:24:23.845Z,18.23
2018-06-10T02:25:24.029Z,18.24
2018-06-10T02:26:24.230Z,18.30
2018-06-10T02:27:24.412Z,18.36
2018-06-10T02:28:24.575Z,18.39
2018-06-10T02:29:24.768Z,18.38
2018-06-10T02:30:24.940Z,18.38
2018-06-10T02:31:25.120Z,18.30
2018-06-10T02:32:25.329Z,18.36
2018-06-10T02:33:25.520Z,18.38
2018-06-10T02:34:25.748Z,18.38
2018-06-10T02:35:25.909Z,18.39
2018-06-10T02:36:26.105Z,18.34
2018-06-10T02:37:26.279Z,18.36
2018-06-10T02:38:26.428Z,18.34
2018-06-10T02:39:26.599Z,18.43
2018-06-10T02:40:26.809Z,18.43
2018-06-10T02:41:26.971Z,18.36
2018-06-10T02:42:27.145Z,18.28
2018-06-10T02:43:27.358Z,18.24
2018-06-10T02:44:27.510Z,18.21
2018-06-10T02:45:27.717Z,18.30
2018-06-10T02:46:27.886Z,18.33
2018-06-10T02:47:28.071Z,18.23
2018-06-10T02:48:28.265Z,18.34
2018-06-10T02:49:28.407Z,18.31
2018-06-10T02:50:28.615Z,18.36
2018-06-10T02:51:28.768Z,18.34
2018-06-10T02:52:29.007Z,18.33
2018-06-10T02:53:29.146Z,18.30
2018-06-10T02:54:29.337Z,18.34
2018-06-10T02:55:29.510Z,18.30
2018-06-10T02:56:29.717Z,18.28
2018-06-10T02:57:29.846Z,18.28
2018-06-10T02:58:30.038Z,18.28
2018-06-10T02:59:30.211Z,18.31
2018-06-10T03:00:30.422Z,18.30
2018-06-10T03:01:30.561Z,18.36
2018-06-10T03:02:30.743Z,18.36
2018-06-10T03:03:30.929Z,18.33
2018-06-10T03:04:31.131Z,18.31
2018-06-10T03:05:31.300Z,18.31
2018-06-10T03:06:31.501Z,18.33
2018-06-10T03:07:31.657Z,18.36
2018-06-10T03:08:31.835Z,18.26
2018-06-10T03:09:32.008Z,18.34
2018-06-10T03:10:32.211Z,18.39
2018-06-10T03:11:32.383Z,18.26
2018-06-10T03:12:32.574Z,18.30
2018-06-10T03:13:32.750Z,18.27
2018-06-10T03:14:32.939Z,18.24
2018-06-10T03:15:33.125Z,18.21
2018-06-10T03:16:33.325Z,18.20
2018-06-10T03:17:33.518Z,18.24
2018-06-10T03:18:33.653Z,18.24
2018-06-10T03:19:33.873Z,18.30
2018-06-10T03:20:34.031Z,18.30
2018-06-10T03:21:34.257Z,18.31
2018-06-10T03:22:34.408Z,18.33
2018-06-10T03:23:34.620Z,18.28
2018-06-10T03:24:34.802Z,18.24
2018-06-10T03:25:34.963Z,18.26
2018-06-10T03:26:35.152Z,18.33
2018-06-10T03:27:35.303Z,18.33
2018-06-10T03:28:35.520Z,18.24
2018-06-10T03:29:35.723Z,18.21
2018-06-10T03:30:35.886Z,18.12
2018-06-10T03:31:36.055Z,18.18
2018-06-10T03:32:36.316Z,18.08
2018-06-10T03:33:36.433Z,18.05
2018-06-10T03:34:36.636Z,18.17
2018-06-10T03:35:36.787Z,18.02
2018-06-10T03:36:36.958Z,18.17
2018-06-10T03:37:37.186Z,18.12
2018-06-10T03:38:37.361Z,18.09
2018-06-10T03:39:37.501Z,17.94
2018-06-10T03:40:37.682Z,17.99
2018-06-10T03:41:37.864Z,17.97
2018-06-10T03:42:38.058Z,18.02
2018-06-10T03:43:38.270Z,17.91
2018-06-10T03:44:38.411Z,18.05
2018-06-10T03:45:38.597Z,17.96
2018-06-10T03:46:38.782Z,18.13
2018-06-10T03:47:38.988Z,18.12
2018-06-10T03:48:39.160Z,18.17
2018-06-10T03:49:39.346Z,18.11
2018-06-10T03:50:39.554Z,18.17
2018-06-10T03:51:39.731Z,18.06
2018-06-10T03:52:39.904Z,18.09
2018-06-10T03:53:40.092Z,18.02
2018-06-10T03:54:40.273Z,17.99
2018-06-10T03:55:40.483Z,17.84
2018-06-10T03:56:40.670Z,17.91
2018-06-10T03:57:40.847Z,17.93
2018-06-10T03:58:41.031Z,17.96
2018-06-10T03:59:41.207Z,17.96
2018-06-10T04:00:41.387Z,17.99
2018-06-10T04:01:41.576Z,18.05
2018-06-10T04:02:41.769Z,18.06
2018-06-10T04:03:41.936Z,18.09
2018-06-10T04:04:42.148Z,18.13
2018-06-10T04:05:42.323Z,18.17
2018-06-10T04:06:42.496Z,18.13
2018-06-10T04:07:42.680Z,18.24
2018-06-10T04:08:42.857Z,18.24
2018-06-10T04:09:43.042Z,18.27
2018-06-10T04:10:43.219Z,18.27
2018-06-10T04:11:43.451Z,18.27
2018-06-10T04:12:43.603Z,18.21
2018-06-10T04:13:43.782Z,18.28
2018-06-10T04:14:43.961Z,18.24
2018-06-10T04:15:44.147Z,18.17
2018-06-10T04:16:44.359Z,18.24
2018-06-10T04:17:44.507Z,18.17
2018-06-10T04:18:44.697Z,18.26
2018-06-10T04:19:44.884Z,18.21
2018-06-10T04:20:45.069Z,18.20
2018-06-10T04:21:45.254Z,18.33
2018-06-10T04:22:45.448Z,18.31
2018-06-10T04:23:45.625Z,18.34
2018-06-10T04:24:45.830Z,18.24
2018-06-10T04:25:45.992Z,18.30
2018-06-10T04:26:46.190Z,18.33
2018-06-10T04:27:46.368Z,18.27
2018-06-10T04:28:46.550Z,18.27
2018-06-10T04:29:46.747Z,18.28
2018-06-10T04:30:46.953Z,18.39
2018-06-10T04:31:47.133Z,18.39
2018-06-10T04:32:47.301Z,18.43
2018-06-10T04:33:47.480Z,18.48
2018-06-10T04:34:47.683Z,18.45
2018-06-10T04:35:47.840Z,18.39
2018-06-10T04:36:48.023Z,18.46
2018-06-10T04:37:48.225Z,18.31
2018-06-10T04:38:48.465Z,18.43
2018-06-10T04:39:48.604Z,18.38
2018-06-10T04:40:48.764Z,18.33
2018-06-10T04:41:48.944Z,18.26
2018-06-10T04:42:49.161Z,18.24
2018-06-10T04:43:49.297Z,18.28
2018-06-10T04:44:49.492Z,18.30
2018-06-10T04:45:49.677Z,18.24
2018-06-10T04:46:49.863Z,18.27
2018-06-10T04:47:50.054Z,18.31
2018-06-10T04:48:50.254Z,18.38
2018-06-10T04:49:50.408Z,18.48
2018-06-10T04:50:50.589Z,18.48
2018-06-10T04:51:50.823Z,18.56
2018-06-10T04:52:50.995Z,18.56
2018-06-10T04:53:51.123Z,18.58
2018-06-10T04:54:51.311Z,18.54
2018-06-10T04:55:51.496Z,18.58
2018-06-10T04:56:51.698Z,18.57
2018-06-10T04:57:51.857Z,18.46
2018-06-10T04:58:52.040Z,18.52
2018-06-10T04:59:52.232Z,18.63
2018-06-10T05:00:52.414Z,18.56
2018-06-10T05:01:52.610Z,18.58
2018-06-10T05:02:52.800Z,18.56
2018-06-10T05:03:53.011Z,18.46
2018-06-10T05:04:53.151Z,18.43
2018-06-10T05:05:53.323Z,18.43
2018-06-10T05:06:53.551Z,18.30
2018-06-10T05:07:53.746Z,18.34
2018-06-10T05:08:53.863Z,18.31
2018-06-10T05:09:54.057Z,18.41
2018-06-10T05:10:54.222Z,18.48
2018-06-10T05:11:54.445Z,18.48
2018-06-10T05:12:54.615Z,18.56
2018-06-10T05:13:54.792Z,18.57
2018-06-10T05:14:54.982Z,18.52
2018-06-10T05:15:55.159Z,18.61
2018-06-10T05:16:55.343Z,18.56
2018-06-10T05:17:55.543Z,18.58
2018-06-10T05:18:55.708Z,18.56
2018-06-10T05:19:55.925Z,18.56
2018-06-10T05:20:56.103Z,18.66
2018-06-10T05:21:56.257Z,18.70
2018-06-10T05:22:56.483Z,18.68
2018-06-10T05:23:56.622Z,18.76
2018-06-10T05:24:56.791Z,18.61
2018-06-10T05:25:57.074Z,18.68
2018-06-10T05:26:57.159Z,18.66
2018-06-10T05:27:57.362Z,18.56
2018-06-10T05:28:57.547Z,18.56
2018-06-10T05:29:57.735Z,18.66
2018-06-10T05:30:57.897Z,18.57
2018-06-10T05:31:58.075Z,18.67
2018-06-10T05:32:58.284Z,18.68
2018-06-10T05:33:58.442Z,18.67
2018-06-10T05:34:58.631Z,18.75
2018-06-10T05:35:58.836Z,18.71
2018-06-10T05:36:58.998Z,18.71
2018-06-10T05:37:59.182Z,18.71
2018-06-10T05:38:59.380Z,18.70
2018-06-10T05:39:59.557Z,18.64
2018-06-10T05:40:59.758Z,18.71
2018-06-10T05:41:59.962Z,18.70
2018-06-10T05:43:00.130Z,18.79
2018-06-10T05:44:00.333Z,18.83
2018-06-10T05:45:00.520Z,18.81
2018-06-10T05:46:00.683Z,18.82
2018-06-10T05:47:00.879Z,18.85
2018-06-10T05:48:01.070Z,18.89
2018-06-10T05:49:01.273Z,18.83
2018-06-10T05:50:01.451Z,18.85
2018-06-10T05:51:01.640Z,18.83
2018-06-10T05:52:01.790Z,18.78
2018-06-10T05:53:01.969Z,18.85
2018-06-10T05:54:02.145Z,18.82
2018-06-10T05:55:02.337Z,18.89
2018-06-10T05:56:02.528Z,18.85
2018-06-10T05:57:02.703Z,18.94
2018-06-10T05:58:02.915Z,18.94
2018-06-10T05:59:03.139Z,18.82
2018-06-10T06:00:03.244Z,18.82
2018-06-10T06:01:03.440Z,18.89
2018-06-10T06:02:03.622Z,18.97
2018-06-10T06:03:03.830Z,18.94
2018-06-10T06:04:03.969Z,18.89
2018-06-10T06:05:04.195Z,18.96
2018-06-10T06:06:04.344Z,18.97
2018-06-10T06:07:04.520Z,18.97
2018-06-10T06:08:04.727Z,18.86
2018-06-10T06:09:04.886Z,18.98
2018-06-10T06:10:05.083Z,18.89
2018-06-10T06:11:05.269Z,18.97
2018-06-10T06:12:05.443Z,19.04
2018-06-10T06:13:05.639Z,19.07
2018-06-10T06:14:05.806Z,19.08
2018-06-10T06:15:05.999Z,19.08
2018-06-10T06:16:06.182Z,18.97
2018-06-10T06:17:06.377Z,18.94
2018-06-10T06:18:06.563Z,19.00
2018-06-10T06:19:06.750Z,19.01
2018-06-10T06:20:06.935Z,18.94
2018-06-10T06:21:07.107Z,19.08
2018-06-10T06:22:07.294Z,19.13
2018-06-10T06:23:07.487Z,19.23
2018-06-10T06:24:07.672Z,19.07
2018-06-10T06:25:07.863Z,19.12
2018-06-10T06:26:08.036Z,19.22
2018-06-10T06:27:08.218Z,19.31
2018-06-10T06:28:08.444Z,19.27
2018-06-10T06:29:08.620Z,19.26
2018-06-10T06:30:08.798Z,19.19
2018-06-10T06:31:08.983Z,19.24
2018-06-10T06:32:09.156Z,19.26
2018-06-10T06:33:09.342Z,19.24
2018-06-10T06:34:09.522Z,19.35
2018-06-10T06:35:09.707Z,19.30
2018-06-10T06:36:09.900Z,19.27
2018-06-10T06:37:10.114Z,19.41
2018-06-10T06:38:10.279Z,19.35
2018-06-10T06:39:10.493Z,19.37
2018-06-10T06:40:10.663Z,19.38
2018-06-10T06:41:10.813Z,19.27
2018-06-10T06:42:11.004Z,19.30
2018-06-10T06:43:11.199Z,19.42
2018-06-10T06:44:11.348Z,19.38
2018-06-10T06:45:11.534Z,19.44
2018-06-10T06:46:11.754Z,19.44
2018-06-10T06:47:11.939Z,19.42
2018-06-10T06:48:12.089Z,19.37
2018-06-10T06:49:12.280Z,19.50
2018-06-10T06:50:12.495Z,19.60
2018-06-10T06:51:12.632Z,19.64
2018-06-10T06:52:12.845Z,19.62
2018-06-10T06:53:13.021Z,19.72
2018-06-10T06:54:13.207Z,19.71
2018-06-10T06:55:13.389Z,19.77
2018-06-10T06:56:13.574Z,19.77
2018-06-10T06:57:13.771Z,19.74
2018-06-10T06:58:13.934Z,19.75
2018-06-10T06:59:14.144Z,19.68
2018-06-10T07:00:14.319Z,19.62
2018-06-10T07:01:14.510Z,19.68
2018-06-10T07:02:14.700Z,19.70
2018-06-10T07:03:14.924Z,19.70
2018-06-10T07:04:15.112Z,19.60
2018-06-10T07:05:15.258Z,19.60
2018-06-10T07:06:15.481Z,19.63
2018-06-10T07:07:15.611Z,19.71
2018-06-10T07:08:15.808Z,19.70
2018-06-10T07:09:16.012Z,19.70
2018-06-10T07:10:16.170Z,19.78
2018-06-10T07:11:16.374Z,19.77
2018-06-10T07:12:16.551Z,19.67
2018-06-10T07:13:16.713Z,19.74
2018-06-10T07:14:16.909Z,19.68
2018-06-10T07:15:17.080Z,19.67
2018-06-10T07:16:17.276Z,19.64
2018-06-10T07:17:17.456Z,19.71
2018-06-10T07:18:17.648Z,19.75
2018-06-10T07:19:17.841Z,19.70
2018-06-10T07:20:18.025Z,19.79
2018-06-10T07:21:18.169Z,19.92
2018-06-10T07:22:18.367Z,19.92
2018-06-10T07:23:18.564Z,19.94
2018-06-10T07:24:18.761Z,19.94
2018-06-10T07:25:18.914Z,19.97
2018-06-10T07:26:19.135Z,19.81
2018-06-10T07:27:19.265Z,19.90
2018-06-10T07:28:19.452Z,19.96
2018-06-10T07:29:19.643Z,19.93
2018-06-10T07:30:19.837Z,19.90
2018-06-10T07:31:20.039Z,19.92
2018-06-10T07:32:20.222Z,19.99
2018-06-10T07:33:20.409Z,19.96
2018-06-10T07:34:20.581Z,20.08
2018-06-10T07:35:20.739Z,20.12
2018-06-10T07:36:20.951Z,20.12
2018-06-10T07:37:21.148Z,20.17
2018-06-10T07:38:21.300Z,20.08
2018-06-10T07:39:21.461Z,20.17
2018-06-10T07:40:21.655Z,20.12
2018-06-10T07:41:21.817Z,20.17
2018-06-10T07:42:22.077Z,20.14
2018-06-10T07:43:22.190Z,20.11
2018-06-10T07:44:22.366Z,20.27
2018-06-10T07:45:22.564Z,20.32
2018-06-10T07:46:22.751Z,20.39
2018-06-10T07:47:22.937Z,20.41
2018-06-10T07:48:23.182Z,20.60
2018-06-10T07:49:23.338Z,20.61
2018-06-10T07:50:23.510Z,20.60
2018-06-10T07:51:23.690Z,20.68
2018-06-10T07:52:23.879Z,20.67
2018-06-10T07:53:24.055Z,20.61
2018-06-10T07:54:24.248Z,20.65
2018-06-10T07:55:24.437Z,20.68
2018-06-10T07:56:24.624Z,20.73
2018-06-10T07:57:24.804Z,20.85
2018-06-10T07:58:24.977Z,20.85
2018-06-10T07:59:25.159Z,20.98
2018-06-10T08:00:25.367Z,20.93
2018-06-10T08:01:25.537Z,21.08
2018-06-10T08:02:25.719Z,21.16
2018-06-10T08:03:25.936Z,21.19
2018-06-10T08:04:26.107Z,21.23
2018-06-10T08:05:26.284Z,21.28
2018-06-10T08:06:26.460Z,21.35
2018-06-10T08:07:26.648Z,21.40
2018-06-10T08:08:26.839Z,21.32
2018-06-10T08:09:27.034Z,21.56
2018-06-10T08:10:27.222Z,21.51
2018-06-10T08:11:27.393Z,21.43
2018-06-10T08:12:27.577Z,21.43
2018-06-10T08:13:27.761Z,21.34
2018-06-10T08:14:28.004Z,21.38
2018-06-10T08:15:28.130Z,21.32
2018-06-10T08:16:28.312Z,21.30
2018-06-10T08:17:28.512Z,21.28
2018-06-10T08:18:28.714Z,21.26
2018-06-10T08:19:28.877Z,21.16
2018-06-10T08:20:29.077Z,20.88
2018-06-10T08:21:29.249Z,20.71
2018-06-10T08:22:29.426Z,20.70
2018-06-10T08:23:29.666Z,20.65
2018-06-10T08:24:29.822Z,20.61
2018-06-10T08:25:30.016Z,20.50
2018-06-10T08:26:30.264Z,20.56
2018-06-10T08:27:30.386Z,20.52
2018-06-10T08:28:30.573Z,20.50
2018-06-10T08:29:30.766Z,20.37
2018-06-10T08:30:30.951Z,20.34
2018-06-10T08:31:31.140Z,20.11
2018-06-10T08:32:31.336Z,20.09
2018-06-10T08:33:31.525Z,20.00
2018-06-10T08:34:31.714Z,19.99
2018-06-10T08:35:31.910Z,19.97
2018-06-10T08:36:32.097Z,19.92
2018-06-10T08:37:32.286Z,19.94
2018-06-10T08:38:32.478Z,20.00
2018-06-10T08:39:32.680Z,19.92
2018-06-10T08:40:32.872Z,19.97
2018-06-10T08:41:33.072Z,19.93
2018-06-10T08:42:33.255Z,20.00
2018-06-10T08:43:33.418Z,20.00
2018-06-10T08:44:33.614Z,20.00
2018-06-10T08:45:33.803Z,20.17
2018-06-10T08:46:33.987Z,20.17
2018-06-10T08:47:34.173Z,20.14
2018-06-10T08:48:34.371Z,20.12
2018-06-10T08:49:34.556Z,20.08
2018-06-10T08:50:34.751Z,19.97
2018-06-10T08:51:34.932Z,19.96
2018-06-10T08:52:35.115Z,19.97
2018-06-10T08:53:35.302Z,20.00
2018-06-10T08:54:35.483Z,20.07
2018-06-10T08:55:35.674Z,20.12
2018-06-10T08:56:35.857Z,20.23
2018-06-10T08:57:36.070Z,20.22
2018-06-10T08:58:36.224Z,20.27
2018-06-10T08:59:36.416Z,20.27
2018-06-10T09:00:36.623Z,20.29
2018-06-10T09:01:36.794Z,20.26
2018-06-10T09:02:37.005Z,20.32
2018-06-10T09:03:37.183Z,20.41
2018-06-10T09:04:37.344Z,20.36
2018-06-10T09:05:37.631Z,20.30
2018-06-10T09:06:37.669Z,20.26
2018-06-10T09:07:37.880Z,20.30
2018-06-10T09:08:38.136Z,20.42
2018-06-10T09:09:38.252Z,20.53
2018-06-10T09:10:38.413Z,20.53
2018-06-10T09:11:38.601Z,20.61
2018-06-10T09:12:38.785Z,20.58
2018-06-10T09:13:38.960Z,20.68
2018-06-10T09:14:39.178Z,20.63
2018-06-10T09:15:39.416Z,20.65
2018-06-10T09:16:39.543Z,20.63
2018-06-10T09:17:39.688Z,20.58
2018-06-10T09:18:39.889Z,20.52
2018-06-10T09:19:40.096Z,20.61
2018-06-10T09:20:40.254Z,20.74
2018-06-10T09:21:40.443Z,20.77
2018-06-10T09:22:40.626Z,20.77
2018-06-10T09:23:40.823Z,20.85
2018-06-10T09:24:41.050Z,20.88
2018-06-10T09:25:41.173Z,20.88
2018-06-10T09:26:41.353Z,20.89
2018-06-10T09:27:41.543Z,20.90
2018-06-10T09:28:42.140Z,20.88
2018-06-10T09:29:41.947Z,21.00
2018-06-10T09:30:42.132Z,21.10
2018-06-10T09:31:42.329Z,20.86
2018-06-10T09:32:42.514Z,20.86
2018-06-10T09:33:42.709Z,20.86
2018-06-10T09:34:42.892Z,21.08
2018-06-10T09:35:43.071Z,21.18
2018-06-10T09:36:43.273Z,21.18
2018-06-10T09:37:43.474Z,20.98
2018-06-10T09:38:43.647Z,20.86
2018-06-10T09:39:43.832Z,20.80
2018-06-10T09:40:44.011Z,20.77
2018-06-10T09:41:44.197Z,20.65
2018-06-10T09:42:44.377Z,20.65
2018-06-10T09:43:44.587Z,20.63
2018-06-10T09:44:44.738Z,20.71
2018-06-10T09:45:44.924Z,20.77
2018-06-10T09:46:45.105Z,20.88
2018-06-10T09:47:45.304Z,20.89
2018-06-10T09:48:45.470Z,20.85
2018-06-10T09:49:45.656Z,20.85
2018-06-10T09:50:45.864Z,20.68
2018-06-10T09:51:46.041Z,20.63
2018-06-10T09:52:46.195Z,20.67
2018-06-10T09:53:46.383Z,20.77
2018-06-10T09:54:46.572Z,20.90
2018-06-10T09:55:46.786Z,21.07
2018-06-10T09:56:46.990Z,21.23
2018-06-10T09:57:47.134Z,21.22
2018-06-10T09:58:47.318Z,21.28
2018-06-10T09:59:47.494Z,21.11
2018-06-10T10:00:47.686Z,21.00
2018-06-10T10:01:47.863Z,20.93
2018-06-10T10:02:48.078Z,21.11
2018-06-10T10:03:48.237Z,21.22
2018-06-10T10:04:48.413Z,21.38
2018-06-10T10:05:48.601Z,21.38
2018-06-10T10:06:48.780Z,21.44
2018-06-10T10:07:48.986Z,21.53
2018-06-10T10:08:49.236Z,21.55
2018-06-10T10:09:49.364Z,21.44
2018-06-10T10:10:49.542Z,21.43
2018-06-10T10:11:49.738Z,21.48
2018-06-10T10:12:49.911Z,21.58
2018-06-10T10:13:50.101Z,21.67
2018-06-10T10:14:50.290Z,21.59
2018-06-10T10:15:50.475Z,21.38
2018-06-10T10:16:50.681Z,21.50
2018-06-10T10:17:50.866Z,21.50
2018-06-10T10:18:51.052Z,21.34
2018-06-10T10:19:51.210Z,21.47
2018-06-10T10:20:51.428Z,21.58
2018-06-10T10:21:51.576Z,21.58
2018-06-10T10:22:51.785Z,21.48
2018-06-10T10:23:51.945Z,21.53
2018-06-10T10:24:52.136Z,21.50
2018-06-10T10:25:52.348Z,21.38
2018-06-10T10:26:52.534Z,21.38
2018-06-10T10:27:52.710Z,21.60
2018-06-10T10:28:52.967Z,21.73
2018-06-10T10:29:53.144Z,21.82
2018-06-10T10:30:53.375Z,21.98
2018-06-10T10:31:53.499Z,21.96
2018-06-10T10:32:53.702Z,21.98
2018-06-10T10:33:53.888Z,21.98
2018-06-10T10:34:54.102Z,22.01
2018-06-10T10:35:54.251Z,21.85
2018-06-10T10:36:54.435Z,21.75
2018-06-10T10:37:54.619Z,21.67
2018-06-10T10:38:54.808Z,21.60
2018-06-10T10:39:54.982Z,21.50
2018-06-10T10:40:55.195Z,21.50
2018-06-10T10:41:55.356Z,21.47
2018-06-10T10:42:55.536Z,21.50
2018-06-10T10:43:55.704Z,21.69
2018-06-10T10:44:55.906Z,21.69
2018-06-10T10:45:56.083Z,21.81
2018-06-10T10:46:56.250Z,21.81
2018-06-10T10:47:56.455Z,21.88
2018-06-10T10:48:56.652Z,22.00
2018-06-10T10:49:56.836Z,22.16
2018-06-10T10:50:57.047Z,22.19
2018-06-10T10:51:57.212Z,22.40
2018-06-10T10:52:57.391Z,22.74
2018-06-10T10:53:57.565Z,22.96
2018-06-10T10:54:57.797Z,23.14
2018-06-10T10:55:57.927Z,23.25
2018-06-10T10:56:58.180Z,23.29
2018-06-10T10:57:58.335Z,23.45
2018-06-10T10:58:58.532Z,23.61
2018-06-10T10:59:58.687Z,23.60
2018-06-10T11:00:58.819Z,23.73
2018-06-10T11:01:59.122Z,23.82
2018-06-10T11:02:59.215Z,24.00
2018-06-10T11:03:59.386Z,24.11
2018-06-10T11:04:59.586Z,23.88
2018-06-10T11:05:59.792Z,23.78
2018-06-10T11:06:59.944Z,23.51
2018-06-10T11:08:00.168Z,23.26
2018-06-10T11:09:00.358Z,23.11
2018-06-10T11:10:00.540Z,23.39
2018-06-10T11:11:00.823Z,23.63
2018-06-10T11:12:00.918Z,23.81
2018-06-10T11:13:01.104Z,23.84
2018-06-10T11:14:01.308Z,23.91
2018-06-10T11:15:01.486Z,23.91
2018-06-10T11:16:01.696Z,24.04
2018-06-10T11:17:01.839Z,23.86
2018-06-10T11:18:02.033Z,23.82
2018-06-10T11:19:02.215Z,24.04
2018-06-10T11:20:02.407Z,24.16
2018-06-10T11:21:02.602Z,24.03
2018-06-10T11:22:02.792Z,24.21
2018-06-10T11:23:02.989Z,24.29
2018-06-10T11:24:03.183Z,24.23
2018-06-10T11:25:03.374Z,24.26
2018-06-10T11:26:03.566Z,24.11
2018-06-10T11:27:03.781Z,24.28
2018-06-10T11:28:03.965Z,24.47
2018-06-10T11:29:04.145Z,24.58
2018-06-10T11:30:04.339Z,24.55
2018-06-10T11:31:04.569Z,24.34
2018-06-10T11:32:04.718Z,24.25
2018-06-10T11:33:04.910Z,24.23
2018-06-10T11:34:05.108Z,24.19
2018-06-10T11:35:05.290Z,24.07
2018-06-10T11:36:05.501Z,24.13
2018-06-10T11:37:05.699Z,24.19
2018-06-10T11:38:05.886Z,24.13
2018-06-10T11:39:06.080Z,24.21
2018-06-10T11:40:06.270Z,24.25
2018-06-10T11:41:06.468Z,24.22
2018-06-10T11:42:06.660Z,24.22
2018-06-10T11:43:06.846Z,24.07
2018-06-10T11:44:07.035Z,24.00
2018-06-10T11:45:07.235Z,24.06
2018-06-10T11:46:07.427Z,24.11
2018-06-10T11:47:07.624Z,24.10
2018-06-10T11:48:07.816Z,24.13
2018-06-10T11:49:08.004Z,24.18
2018-06-10T11:50:08.216Z,24.18
2018-06-10T11:51:08.390Z,24.15
2018-06-10T11:52:08.644Z,24.11
2018-06-10T11:53:08.776Z,24.10
2018-06-10T11:54:08.968Z,24.13
2018-06-10T11:55:09.169Z,24.22
2018-06-10T11:56:09.345Z,24.19
2018-06-10T11:57:09.544Z,24.29
2018-06-10T11:58:09.755Z,24.26
2018-06-10T11:59:09.911Z,24.48
2018-06-10T12:00:10.115Z,24.63
2018-06-10T12:01:10.322Z,24.75
2018-06-10T12:02:10.483Z,24.70
2018-06-10T12:03:10.676Z,24.81
2018-06-10T12:04:10.867Z,24.65
2018-06-10T12:05:11.090Z,24.48
2018-06-10T12:06:11.246Z,24.36
2018-06-10T12:07:11.441Z,24.31
2018-06-10T12:08:11.629Z,24.19
2018-06-10T12:09:11.826Z,24.22
2018-06-10T12:10:12.013Z,24.10
2018-06-10T12:11:12.205Z,24.06
2018-06-10T12:12:12.390Z,24.07
2018-06-10T12:13:12.635Z,24.22
2018-06-10T12:14:12.778Z,24.23
2018-06-10T12:15:12.968Z,24.31
2018-06-10T12:16:13.170Z,24.31
2018-06-10T12:17:13.350Z,24.41
2018-06-10T12:18:13.544Z,24.31
2018-06-10T12:19:13.735Z,24.44
2018-06-10T12:20:13.926Z,24.55
2018-06-10T12:21:14.122Z,24.78
2018-06-10T12:22:14.310Z,24.81
2018-06-10T12:23:14.503Z,24.96
2018-06-10T12:24:14.693Z,25.12
2018-06-10T12:25:14.885Z,25.19
2018-06-10T12:26:15.077Z,25.09
2018-06-10T12:27:15.273Z,25.16
2018-06-10T12:28:15.462Z,25.28
2018-06-10T12:29:15.693Z,25.37
2018-06-10T12:30:15.851Z,25.49
2018-06-10T12:31:16.044Z,25.46
2018-06-10T12:32:16.240Z,25.46
2018-06-10T12:33:16.428Z,25.34
2018-06-10T12:34:16.620Z,25.23
2018-06-10T12:35:16.837Z,25.03
2018-06-10T12:36:17.013Z,24.84
2018-06-10T12:37:17.202Z,24.97
2018-06-10T12:38:17.395Z,24.89
2018-06-10T12:39:17.597Z,25.00
2018-06-10T12:40:17.784Z,25.12
2018-06-10T12:41:17.954Z,25.33
2018-06-10T12:42:18.190Z,25.40
2018-06-10T12:43:18.348Z,25.49
2018-06-10T12:44:18.547Z,25.63
2018-06-10T12:45:19.493Z,25.75
2018-06-10T12:46:18.922Z,25.95
2018-06-10T12:47:19.118Z,26.05
2018-06-10T12:48:19.297Z,26.21
2018-06-10T12:49:19.521Z,26.36
2018-06-10T12:50:19.748Z,26.48
2018-06-10T12:51:19.937Z,26.60
2018-06-10T12:52:20.019Z,26.68
2018-06-10T12:53:20.215Z,26.73
2018-06-10T12:54:20.406Z,26.76
2018-06-10T12:55:20.609Z,26.68